North College Park, Maryland
Current Conditions -  °F | °C
As of 5:05 PM on Tuesday 25 Nov 2014 (Local Time) from KCGS Reporting Station
Clear Clear  
Wind Chill: 52°   Ceiling: Unl
Heat Index: 52°   Visibility: 10mi
Dew Point: 32°   Wind: 0mph
Humidity: 47%   Direction: NA
Pressure: 30.07"   Gusts: NA
Location:  38.9974°N, 76.9284°W
Report Text: KCGS 252205Z AUTO 00000KT 10SM CLR 11/00 A3007 RMK AO1
Loading
Personal Weather Stations






























Interactive Weather Map New forecast layout! Learn more

10-Day Weather Forecast

Advertisements
Track Severe Weather on mobile